sensor_id;sensor_type;location;lat;lon;timestamp;P1;durP1;ratioP1;P2;durP2;ratioP2
78288;SDS011;67539;48.752;12.922;2023-03-01T00:01:19;22.23;;;14.15;;
78288;SDS011;67539;48.752;12.922;2023-03-01T00:03:48;22.30;;;14.10;;
78288;SDS011;67539;48.752;12.922;2023-03-01T00:06:17;23.48;;;14.35;;
78288;SDS011;67539;48.752;12.922;2023-03-01T00:08:46;21.55;;;13.13;;
78288;SDS011;67539;48.752;12.922;2023-03-01T00:11:15;22.38;;;14.52;;
78288;SDS011;67539;48.752;12.922;2023-03-01T00:13:46;19.42;;;13.45;;
78288;SDS011;67539;48.752;12.922;2023-03-01T00:16:16;20.48;;;13.65;;
78288;SDS011;67539;48.752;12.922;2023-03-01T00:18:45;18.40;;;13.45;;
78288;SDS011;67539;48.752;12.922;2023-03-01T00:21:14;19.92;;;14.30;;
78288;SDS011;67539;48.752;12.922;2023-03-01T00:23:42;22.83;;;14.57;;
78288;SDS011;67539;48.752;12.922;2023-03-01T00:26:12;20.52;;;13.48;;
78288;SDS011;67539;48.752;12.922;2023-03-01T00:28:41;19.80;;;13.82;;
78288;SDS011;67539;48.752;12.922;2023-03-01T00:31:11;23.00;;;15.00;;
78288;SDS011;67539;48.752;12.922;2023-03-01T00:33:41;22.73;;;14.00;;
78288;SDS011;67539;48.752;12.922;2023-03-01T00:36:10;21.63;;;13.57;;
78288;SDS011;67539;48.752;12.922;2023-03-01T00:38:41;19.98;;;13.68;;
78288;SDS011;67539;48.752;12.922;2023-03-01T00:41:11;21.70;;;14.30;;
78288;SDS011;67539;48.752;12.922;2023-03-01T00:43:41;23.15;;;15.05;;
78288;SDS011;67539;48.752;12.922;2023-03-01T00:46:12;21.63;;;14.07;;
78288;SDS011;67539;48.752;12.922;2023-03-01T00:48:42;24.58;;;15.00;;
78288;SDS011;67539;48.752;12.922;2023-03-01T00:51:11;21.05;;;13.20;;
78288;SDS011;67539;48.752;12.922;2023-03-01T00:53:40;24.80;;;16.40;;
78288;SDS011;67539;48.752;12.922;2023-03-01T00:56:08;19.50;;;14.02;;
78288;SDS011;67539;48.752;12.922;2023-03-01T00:58:38;20.83;;;14.32;;
78288;SDS011;67539;48.752;12.922;2023-03-01T01:01:07;21.70;;;13.65;;
78288;SDS011;67539;48.752;12.922;2023-03-01T01:03:45;21.33;;;14.40;;
78288;SDS011;67539;48.752;12.922;2023-03-01T01:06:15;20.95;;;13.98;;
78288;SDS011;67539;48.752;12.922;2023-03-01T01:08:44;24.05;;;14.75;;
78288;SDS011;67539;48.752;12.922;2023-03-01T01:11:13;22.10;;;14.80;;
78288;SDS011;67539;48.752;12.922;2023-03-01T01:13:43;22.75;;;14.43;;
78288;SDS011;67539;48.752;12.922;2023-03-01T01:16:12;23.63;;;14.90;;
78288;SDS011;67539;48.752;12.922;2023-03-01T01:18:41;23.58;;;14.00;;
78288;SDS011;67539;48.752;12.922;2023-03-01T01:21:12;23.92;;;15.30;;
78288;SDS011;67539;48.752;12.922;2023-03-01T01:23:42;22.02;;;14.35;;
78288;SDS011;67539;48.752;12.922;2023-03-01T01:26:12;24.70;;;15.18;;
78288;SDS011;67539;48.752;12.922;2023-03-01T01:28:42;23.00;;;14.52;;
78288;SDS011;67539;48.752;12.922;2023-03-01T01:31:10;17.88;;;12.75;;
78288;SDS011;67539;48.752;12.922;2023-03-01T01:33:39;22.50;;;14.55;;
78288;SDS011;67539;48.752;12.922;2023-03-01T01:36:08;24.80;;;16.10;;
78288;SDS011;67539;48.752;12.922;2023-03-01T01:38:38;25.90;;;14.88;;
78288;SDS011;67539;48.752;12.922;2023-03-01T01:41:08;25.08;;;14.75;;
78288;SDS011;67539;48.752;12.922;2023-03-01T01:43:39;21.23;;;14.98;;
78288;SDS011;67539;48.752;12.922;2023-03-01T01:46:12;25.38;;;15.55;;
78288;SDS011;67539;48.752;12.922;2023-03-01T01:48:59;22.98;;;15.02;;
78288;SDS011;67539;48.752;12.922;2023-03-01T01:51:32;22.13;;;13.98;;
78288;SDS011;67539;48.752;12.922;2023-03-01T01:54:09;22.83;;;14.10;;
78288;SDS011;67539;48.752;12.922;2023-03-01T01:56:40;23.88;;;14.02;;
78288;SDS011;67539;48.752;12.922;2023-03-01T01:59:15;26.40;;;15.68;;
78288;SDS011;67539;48.752;12.922;2023-03-01T02:01:44;23.05;;;14.85;;
78288;SDS011;67539;48.752;12.922;2023-03-01T02:04:12;20.33;;;14.32;;
78288;SDS011;67539;48.752;12.922;2023-03-01T02:06:42;21.58;;;14.50;;
78288;SDS011;67539;48.752;12.922;2023-03-01T02:09:19;22.90;;;14.90;;
78288;SDS011;67539;48.752;12.922;2023-03-01T02:11:49;22.52;;;14.70;;
78288;SDS011;67539;48.752;12.922;2023-03-01T02:14:19;23.83;;;14.05;;
78288;SDS011;67539;48.752;12.922;2023-03-01T02:16:47;21.70;;;13.80;;
78288;SDS011;67539;48.752;12.922;2023-03-01T02:19:20;24.33;;;14.68;;
78288;SDS011;67539;48.752;12.922;2023-03-01T02:21:58;23.63;;;13.70;;
78288;SDS011;67539;48.752;12.922;2023-03-01T02:24:36;25.83;;;15.43;;
78288;SDS011;67539;48.752;12.922;2023-03-01T02:27:15;20.73;;;13.82;;
78288;SDS011;67539;48.752;12.922;2023-03-01T02:29:49;25.73;;;15.15;;
78288;SDS011;67539;48.752;12.922;2023-03-01T02:32:18;24.40;;;16.90;;
78288;SDS011;67539;48.752;12.922;2023-03-01T02:34:52;27.35;;;17.45;;
78288;SDS011;67539;48.752;12.922;2023-03-01T02:37:21;32.00;;;17.80;;
78288;SDS011;67539;48.752;12.922;2023-03-01T02:39:53;23.83;;;14.85;;
78288;SDS011;67539;48.752;12.922;2023-03-01T02:42:28;22.60;;;15.23;;
78288;SDS011;67539;48.752;12.922;2023-03-01T02:45:02;25.85;;;15.10;;
78288;SDS011;67539;48.752;12.922;2023-03-01T02:47:31;28.17;;;15.55;;
78288;SDS011;67539;48.752;12.922;2023-03-01T02:50:00;20.75;;;14.57;;
78288;SDS011;67539;48.752;12.922;2023-03-01T02:52:32;23.63;;;15.48;;
78288;SDS011;67539;48.752;12.922;2023-03-01T02:55:08;26.40;;;15.75;;
78288;SDS011;67539;48.752;12.922;2023-03-01T02:57:40;22.00;;;14.27;;
78288;SDS011;67539;48.752;12.922;2023-03-01T03:00:12;22.88;;;14.73;;
78288;SDS011;67539;48.752;12.922;2023-03-01T03:02:46;18.75;;;13.88;;
78288;SDS011;67539;48.752;12.922;2023-03-01T03:05:22;26.77;;;14.95;;
78288;SDS011;67539;48.752;12.922;2023-03-01T03:07:55;24.58;;;14.77;;
78288;SDS011;67539;48.752;12.922;2023-03-01T03:10:26;20.90;;;13.65;;
78288;SDS011;67539;48.752;12.922;2023-03-01T03:12:56;25.75;;;15.02;;
78288;SDS011;67539;48.752;12.922;2023-03-01T03:15:27;21.10;;;14.68;;
78288;SDS011;67539;48.752;12.922;2023-03-01T03:17:57;24.30;;;15.02;;
78288;SDS011;67539;48.752;12.922;2023-03-01T03:20:27;24.27;;;15.10;;
78288;SDS011;67539;48.752;12.922;2023-03-01T03:22:56;22.27;;;14.45;;
78288;SDS011;67539;48.752;12.922;2023-03-01T03:25:26;23.98;;;14.85;;
78288;SDS011;67539;48.752;12.922;2023-03-01T03:27:56;22.02;;;13.88;;
78288;SDS011;67539;48.752;12.922;2023-03-01T03:30:26;26.05;;;15.25;;
78288;SDS011;67539;48.752;12.922;2023-03-01T03:32:57;24.60;;;14.93;;
78288;SDS011;67539;48.752;12.922;2023-03-01T03:35:27;25.35;;;15.75;;
78288;SDS011;67539;48.752;12.922;2023-03-01T03:37:58;21.83;;;14.68;;
78288;SDS011;67539;48.752;12.922;2023-03-01T03:40:31;22.73;;;15.73;;
78288;SDS011;67539;48.752;12.922;2023-03-01T03:43:01;22.35;;;15.13;;
78288;SDS011;67539;48.752;12.922;2023-03-01T03:45:31;25.90;;;15.15;;
78288;SDS011;67539;48.752;12.922;2023-03-01T03:48:02;23.83;;;13.85;;
78288;SDS011;67539;48.752;12.922;2023-03-01T03:50:31;24.60;;;14.90;;
78288;SDS011;67539;48.752;12.922;2023-03-01T03:53:01;26.20;;;14.50;;
78288;SDS011;67539;48.752;12.922;2023-03-01T03:55:31;25.52;;;15.25;;
78288;SDS011;67539;48.752;12.922;2023-03-01T03:58:00;23.95;;;14.93;;
78288;SDS011;67539;48.752;12.922;2023-03-01T04:00:35;28.45;;;15.20;;
78288;SDS011;67539;48.752;12.922;2023-03-01T04:03:05;23.70;;;14.07;;
78288;SDS011;67539;48.752;12.922;2023-03-01T04:05:35;26.83;;;16.00;;
78288;SDS011;67539;48.752;12.922;2023-03-01T04:08:04;23.65;;;15.10;;
78288;SDS011;67539;48.752;12.922;2023-03-01T04:10:34;26.05;;;15.32;;
78288;SDS011;67539;48.752;12.922;2023-03-01T04:13:04;24.17;;;14.93;;
78288;SDS011;67539;48.752;12.922;2023-03-01T04:15:34;26.70;;;15.50;;
78288;SDS011;67539;48.752;12.922;2023-03-01T04:18:03;29.23;;;15.48;;
78288;SDS011;67539;48.752;12.922;2023-03-01T04:20:33;29.48;;;17.23;;
78288;SDS011;67539;48.752;12.922;2023-03-01T04:23:04;25.38;;;16.02;;
78288;SDS011;67539;48.752;12.922;2023-03-01T04:25:40;27.00;;;16.58;;
78288;SDS011;67539;48.752;12.922;2023-03-01T04:28:10;27.00;;;15.95;;
78288;SDS011;67539;48.752;12.922;2023-03-01T04:30:39;27.08;;;15.07;;
78288;SDS011;67539;48.752;12.922;2023-03-01T04:33:09;28.10;;;16.10;;
78288;SDS011;67539;48.752;12.922;2023-03-01T04:35:38;25.58;;;14.35;;
78288;SDS011;67539;48.752;12.922;2023-03-01T04:38:07;23.52;;;14.70;;
78288;SDS011;67539;48.752;12.922;2023-03-01T04:40:36;22.52;;;15.73;;
78288;SDS011;67539;48.752;12.922;2023-03-01T04:43:04;22.75;;;15.32;;
78288;SDS011;67539;48.752;12.922;2023-03-01T04:45:32;26.58;;;15.82;;
78288;SDS011;67539;48.752;12.922;2023-03-01T04:48:03;27.88;;;15.95;;
78288;SDS011;67539;48.752;12.922;2023-03-01T04:50:32;22.17;;;14.57;;
78288;SDS011;67539;48.752;12.922;2023-03-01T04:53:01;23.85;;;15.90;;
78288;SDS011;67539;48.752;12.922;2023-03-01T04:55:29;23.75;;;14.57;;
78288;SDS011;67539;48.752;12.922;2023-03-01T04:57:58;30.27;;;17.27;;
78288;SDS011;67539;48.752;12.922;2023-03-01T05:00:27;27.65;;;15.73;;
78288;SDS011;67539;48.752;12.922;2023-03-01T05:02:56;24.85;;;14.80;;
78288;SDS011;67539;48.752;12.922;2023-03-01T05:05:28;23.98;;;14.75;;
78288;SDS011;67539;48.752;12.922;2023-03-01T05:07:59;30.90;;;19.15;;
78288;SDS011;67539;48.752;12.922;2023-03-01T05:10:30;32.58;;;18.35;;
78288;SDS011;67539;48.752;12.922;2023-03-01T05:13:02;29.58;;;17.65;;
78288;SDS011;67539;48.752;12.922;2023-03-01T05:15:31;26.05;;;16.48;;
78288;SDS011;67539;48.752;12.922;2023-03-01T05:18:00;25.38;;;16.55;;
78288;SDS011;67539;48.752;12.922;2023-03-01T05:20:30;24.48;;;15.05;;
78288;SDS011;67539;48.752;12.922;2023-03-01T05:22:58;25.25;;;16.48;;
78288;SDS011;67539;48.752;12.922;2023-03-01T05:25:32;34.60;;;17.38;;
78288;SDS011;67539;48.752;12.922;2023-03-01T05:28:07;25.08;;;15.73;;
78288;SDS011;67539;48.752;12.922;2023-03-01T05:30:39;29.77;;;17.65;;
78288;SDS011;67539;48.752;12.922;2023-03-01T05:33:08;27.02;;;15.98;;
78288;SDS011;67539;48.752;12.922;2023-03-01T05:35:41;28.70;;;17.25;;
78288;SDS011;67539;48.752;12.922;2023-03-01T05:38:11;27.17;;;16.17;;
78288;SDS011;67539;48.752;12.922;2023-03-01T05:40:41;24.55;;;15.40;;
78288;SDS011;67539;48.752;12.922;2023-03-01T05:43:10;28.45;;;16.00;;
78288;SDS011;67539;48.752;12.922;2023-03-01T05:45:39;22.77;;;14.65;;
78288;SDS011;67539;48.752;12.922;2023-03-01T05:48:08;28.88;;;16.60;;
78288;SDS011;67539;48.752;12.922;2023-03-01T05:50:38;30.23;;;17.60;;
78288;SDS011;67539;48.752;12.922;2023-03-01T05:53:10;27.70;;;16.08;;
78288;SDS011;67539;48.752;12.922;2023-03-01T05:55:40;27.55;;;15.18;;
78288;SDS011;67539;48.752;12.922;2023-03-01T05:58:09;31.73;;;16.70;;
78288;SDS011;67539;48.752;12.922;2023-03-01T06:00:41;23.20;;;14.65;;
78288;SDS011;67539;48.752;12.922;2023-03-01T06:03:10;26.95;;;16.55;;
78288;SDS011;67539;48.752;12.922;2023-03-01T06:05:39;28.25;;;15.35;;
78288;SDS011;67539;48.752;12.922;2023-03-01T06:08:10;27.75;;;16.45;;
78288;SDS011;67539;48.752;12.922;2023-03-01T06:10:39;24.77;;;15.18;;
78288;SDS011;67539;48.752;12.922;2023-03-01T06:13:08;23.55;;;15.35;;
78288;SDS011;67539;48.752;12.922;2023-03-01T06:15:36;29.65;;;17.15;;
78288;SDS011;67539;48.752;12.922;2023-03-01T06:18:04;23.88;;;15.25;;
78288;SDS011;67539;48.752;12.922;2023-03-01T06:20:32;26.15;;;15.80;;
78288;SDS011;67539;48.752;12.922;2023-03-01T06:23:01;25.73;;;15.48;;
78288;SDS011;67539;48.752;12.922;2023-03-01T06:25:32;27.88;;;16.17;;
78288;SDS011;67539;48.752;12.922;2023-03-01T06:28:00;31.38;;;18.15;;
78288;SDS011;67539;48.752;12.922;2023-03-01T06:30:28;31.95;;;18.13;;
78288;SDS011;67539;48.752;12.922;2023-03-01T06:32:56;29.85;;;17.05;;
78288;SDS011;67539;48.752;12.922;2023-03-01T06:35:27;29.70;;;16.63;;
78288;SDS011;67539;48.752;12.922;2023-03-01T06:37:58;34.58;;;18.88;;
78288;SDS011;67539;48.752;12.922;2023-03-01T06:40:27;39.58;;;21.48;;
78288;SDS011;67539;48.752;12.922;2023-03-01T06:42:58;38.58;;;20.52;;
78288;SDS011;67539;48.752;12.922;2023-03-01T06:45:27;36.15;;;19.70;;
78288;SDS011;67539;48.752;12.922;2023-03-01T06:48:01;37.40;;;20.05;;
78288;SDS011;67539;48.752;12.922;2023-03-01T06:50:31;33.72;;;18.35;;
78288;SDS011;67539;48.752;12.922;2023-03-01T06:52:59;41.38;;;22.33;;
78288;SDS011;67539;48.752;12.922;2023-03-01T06:55:28;34.42;;;21.48;;
78288;SDS011;67539;48.752;12.922;2023-03-01T06:57:57;42.15;;;24.23;;
78288;SDS011;67539;48.752;12.922;2023-03-01T07:00:28;40.88;;;23.67;;
78288;SDS011;67539;48.752;12.922;2023-03-01T07:02:58;47.90;;;25.65;;
78288;SDS011;67539;48.752;12.922;2023-03-01T07:05:28;36.17;;;20.10;;
78288;SDS011;67539;48.752;12.922;2023-03-01T07:07:57;30.15;;;18.73;;
78288;SDS011;67539;48.752;12.922;2023-03-01T07:10:25;29.90;;;16.90;;
78288;SDS011;67539;48.752;12.922;2023-03-01T07:12:55;30.08;;;16.83;;
78288;SDS011;67539;48.752;12.922;2023-03-01T07:15:25;26.33;;;16.08;;
78288;SDS011;67539;48.752;12.922;2023-03-01T07:17:55;26.95;;;16.02;;
78288;SDS011;67539;48.752;12.922;2023-03-01T07:20:24;20.63;;;14.95;;
78288;SDS011;67539;48.752;12.922;2023-03-01T07:22:52;26.52;;;15.98;;
78288;SDS011;67539;48.752;12.922;2023-03-01T07:25:21;25.20;;;15.75;;
78288;SDS011;67539;48.752;12.922;2023-03-01T07:27:49;27.10;;;16.30;;
78288;SDS011;67539;48.752;12.922;2023-03-01T07:30:18;25.13;;;16.50;;
78288;SDS011;67539;48.752;12.922;2023-03-01T07:32:48;23.98;;;15.30;;
78288;SDS011;67539;48.752;12.922;2023-03-01T07:35:19;26.00;;;16.17;;
78288;SDS011;67539;48.752;12.922;2023-03-01T07:37:48;28.75;;;16.85;;
78288;SDS011;67539;48.752;12.922;2023-03-01T07:40:16;25.60;;;15.93;;
78288;SDS011;67539;48.752;12.922;2023-03-01T07:42:45;30.67;;;17.00;;
78288;SDS011;67539;48.752;12.922;2023-03-01T07:45:13;25.50;;;15.70;;
78288;SDS011;67539;48.752;12.922;2023-03-01T07:47:41;24.52;;;15.52;;
78288;SDS011;67539;48.752;12.922;2023-03-01T07:50:11;26.65;;;17.05;;
78288;SDS011;67539;48.752;12.922;2023-03-01T07:52:41;27.73;;;16.70;;
78288;SDS011;67539;48.752;12.922;2023-03-01T07:55:10;27.27;;;17.00;;
78288;SDS011;67539;48.752;12.922;2023-03-01T07:57:38;24.35;;;14.75;;
78288;SDS011;67539;48.752;12.922;2023-03-01T08:00:07;32.08;;;16.98;;
78288;SDS011;67539;48.752;12.922;2023-03-01T08:02:37;28.17;;;16.45;;
78288;SDS011;67539;48.752;12.922;2023-03-01T08:05:08;27.88;;;16.42;;
78288;SDS011;67539;48.752;12.922;2023-03-01T08:07:38;25.33;;;16.15;;
78288;SDS011;67539;48.752;12.922;2023-03-01T08:10:07;24.38;;;15.85;;
78288;SDS011;67539;48.752;12.922;2023-03-01T08:12:36;24.75;;;15.75;;
78288;SDS011;67539;48.752;12.922;2023-03-01T08:15:05;21.02;;;14.80;;
78288;SDS011;67539;48.752;12.922;2023-03-01T08:17:34;32.42;;;21.42;;
78288;SDS011;67539;48.752;12.922;2023-03-01T08:20:02;31.45;;;20.60;;
78288;SDS011;67539;48.752;12.922;2023-03-01T08:22:32;25.42;;;15.75;;
78288;SDS011;67539;48.752;12.922;2023-03-01T08:25:02;26.65;;;16.92;;
78288;SDS011;67539;48.752;12.922;2023-03-01T08:27:31;24.73;;;16.50;;
78288;SDS011;67539;48.752;12.922;2023-03-01T08:29:59;29.13;;;18.63;;
78288;SDS011;67539;48.752;12.922;2023-03-01T08:32:27;23.42;;;15.27;;
78288;SDS011;67539;48.752;12.922;2023-03-01T08:34:56;28.05;;;20.88;;
78288;SDS011;67539;48.752;12.922;2023-03-01T08:37:24;58.80;;;38.67;;
78288;SDS011;67539;48.752;12.922;2023-03-01T08:39:54;32.03;;;19.10;;
78288;SDS011;67539;48.752;12.922;2023-03-01T08:42:23;23.48;;;17.42;;
78288;SDS011;67539;48.752;12.922;2023-03-01T08:44:51;24.90;;;15.10;;
78288;SDS011;67539;48.752;12.922;2023-03-01T08:47:20;71.00;;;40.42;;
78288;SDS011;67539;48.752;12.922;2023-03-01T08:49:48;28.13;;;18.60;;
78288;SDS011;67539;48.752;12.922;2023-03-01T08:52:17;21.30;;;13.88;;
78288;SDS011;67539;48.752;12.922;2023-03-01T08:54:47;21.30;;;13.77;;
78288;SDS011;67539;48.752;12.922;2023-03-01T08:57:15;17.85;;;12.85;;
78288;SDS011;67539;48.752;12.922;2023-03-01T08:59:44;21.05;;;12.98;;
78288;SDS011;67539;48.752;12.922;2023-03-01T09:02:13;17.00;;;12.50;;
78288;SDS011;67539;48.752;12.922;2023-03-01T09:04:42;19.15;;;12.40;;
78288;SDS011;67539;48.752;12.922;2023-03-01T09:07:11;17.77;;;12.50;;
78288;SDS011;67539;48.752;12.922;2023-03-01T09:09:39;19.85;;;12.98;;
78288;SDS011;67539;48.752;12.922;2023-03-01T09:12:07;19.42;;;12.93;;
78288;SDS011;67539;48.752;12.922;2023-03-01T09:14:35;18.75;;;12.68;;
78288;SDS011;67539;48.752;12.922;2023-03-01T09:17:06;18.88;;;11.98;;
78288;SDS011;67539;48.752;12.922;2023-03-01T09:19:34;16.67;;;11.95;;
78288;SDS011;67539;48.752;12.922;2023-03-01T09:22:02;16.33;;;11.40;;
78288;SDS011;67539;48.752;12.922;2023-03-01T09:24:31;16.15;;;12.00;;
78288;SDS011;67539;48.752;12.922;2023-03-01T09:26:59;16.15;;;11.98;;
78288;SDS011;67539;48.752;12.922;2023-03-01T09:29:27;15.90;;;10.50;;
78288;SDS011;67539;48.752;12.922;2023-03-01T09:31:55;20.15;;;12.20;;
78288;SDS011;67539;48.752;12.922;2023-03-01T09:34:25;17.63;;;12.15;;
78288;SDS011;67539;48.752;12.922;2023-03-01T09:36:53;18.02;;;11.80;;
78288;SDS011;67539;48.752;12.922;2023-03-01T09:39:21;14.48;;;10.52;;
78288;SDS011;67539;48.752;12.922;2023-03-01T09:41:51;15.45;;;11.45;;
78288;SDS011;67539;48.752;12.922;2023-03-01T09:44:27;19.75;;;12.55;;
78288;SDS011;67539;48.752;12.922;2023-03-01T09:47:00;17.35;;;12.57;;
78288;SDS011;67539;48.752;12.922;2023-03-01T09:49:31;18.47;;;12.70;;
78288;SDS011;67539;48.752;12.922;2023-03-01T09:52:03;20.00;;;14.17;;
78288;SDS011;67539;48.752;12.922;2023-03-01T09:54:45;18.30;;;13.25;;
78288;SDS011;67539;48.752;12.922;2023-03-01T09:57:17;19.90;;;13.40;;
78288;SDS011;67539;48.752;12.922;2023-03-01T09:59:55;19.17;;;13.17;;
78288;SDS011;67539;48.752;12.922;2023-03-01T10:02:33;19.53;;;14.60;;
78288;SDS011;67539;48.752;12.922;2023-03-01T10:05:12;20.52;;;15.05;;
78288;SDS011;67539;48.752;12.922;2023-03-01T10:07:54;18.58;;;12.73;;
78288;SDS011;67539;48.752;12.922;2023-03-01T10:10:34;18.53;;;12.70;;
78288;SDS011;67539;48.752;12.922;2023-03-01T10:13:21;18.70;;;14.23;;
78288;SDS011;67539;48.752;12.922;2023-03-01T10:15:55;19.10;;;13.63;;
78288;SDS011;67539;48.752;12.922;2023-03-01T10:18:25;19.93;;;14.37;;
78288;SDS011;67539;48.752;12.922;2023-03-01T10:20:57;19.80;;;13.90;;
78288;SDS011;67539;48.752;12.922;2023-03-01T10:23:29;19.23;;;14.10;;
78288;SDS011;67539;48.752;12.922;2023-03-01T10:26:06;21.13;;;15.13;;
78288;SDS011;67539;48.752;12.922;2023-03-01T10:28:44;17.90;;;13.27;;
78288;SDS011;67539;48.752;12.922;2023-03-01T10:31:21;18.23;;;13.10;;
78288;SDS011;67539;48.752;12.922;2023-03-01T10:33:55;21.30;;;15.07;;
78288;SDS011;67539;48.752;12.922;2023-03-01T10:36:26;21.23;;;13.67;;
78288;SDS011;67539;48.752;12.922;2023-03-01T10:38:57;23.37;;;14.40;;
78288;SDS011;67539;48.752;12.922;2023-03-01T10:41:25;22.03;;;15.27;;
78288;SDS011;67539;48.752;12.922;2023-03-01T10:43:55;19.97;;;14.17;;
78288;SDS011;67539;48.752;12.922;2023-03-01T10:46:28;20.13;;;13.77;;
78288;SDS011;67539;48.752;12.922;2023-03-01T10:49:07;21.43;;;14.90;;
78288;SDS011;67539;48.752;12.922;2023-03-01T10:51:43;20.80;;;13.67;;
78288;SDS011;67539;48.752;12.922;2023-03-01T10:54:17;20.27;;;14.50;;
78288;SDS011;67539;48.752;12.922;2023-03-01T10:56:49;21.13;;;14.10;;
78288;SDS011;67539;48.752;12.922;2023-03-01T10:59:22;17.20;;;12.13;;
78288;SDS011;67539;48.752;12.922;2023-03-01T11:02:01;18.20;;;12.97;;
78288;SDS011;67539;48.752;12.922;2023-03-01T11:04:57;18.20;;;12.80;;
78288;SDS011;67539;48.752;12.922;2023-03-01T11:07:28;17.20;;;13.00;;
78288;SDS011;67539;48.752;12.922;2023-03-01T11:09:56;20.30;;;13.30;;
78288;SDS011;67539;48.752;12.922;2023-03-01T11:12:25;16.90;;;13.00;;
78288;SDS011;67539;48.752;12.922;2023-03-01T11:14:56;20.37;;;12.93;;
78288;SDS011;67539;48.752;12.922;2023-03-01T11:17:26;19.77;;;12.00;;
78288;SDS011;67539;48.752;12.922;2023-03-01T11:20:06;16.07;;;12.50;;
78288;SDS011;67539;48.752;12.922;2023-03-01T11:22:46;17.23;;;11.70;;
78288;SDS011;67539;48.752;12.922;2023-03-01T11:25:17;20.53;;;13.73;;
78288;SDS011;67539;48.752;12.922;2023-03-01T11:27:51;18.23;;;12.80;;
78288;SDS011;67539;48.752;12.922;2023-03-01T11:30:21;19.30;;;12.97;;
78288;SDS011;67539;48.752;12.922;2023-03-01T11:32:57;17.70;;;12.90;;
78288;SDS011;67539;48.752;12.922;2023-03-01T11:35:33;20.13;;;13.53;;
78288;SDS011;67539;48.752;12.922;2023-03-01T11:38:09;17.30;;;12.77;;
78288;SDS011;67539;48.752;12.922;2023-03-01T11:40:44;18.53;;;13.40;;
78288;SDS011;67539;48.752;12.922;2023-03-01T11:43:16;21.03;;;13.53;;
78288;SDS011;67539;48.752;12.922;2023-03-01T11:48:57;18.63;;;12.80;;
78288;SDS011;67539;48.752;12.922;2023-03-01T11:51:37;19.37;;;12.67;;
78288;SDS011;67539;48.752;12.922;2023-03-01T11:54:13;18.27;;;13.23;;
78288;SDS011;67539;48.752;12.922;2023-03-01T11:56:49;14.40;;;12.40;;
78288;SDS011;67539;48.752;12.922;2023-03-01T12:02:36;15.30;;;12.00;;
78288;SDS011;67539;48.752;12.922;2023-03-01T12:05:21;16.13;;;11.17;;
78288;SDS011;67539;48.752;12.922;2023-03-01T12:08:12;15.93;;;11.83;;
78288;SDS011;67539;48.752;12.922;2023-03-01T12:10:51;14.40;;;11.40;;
78288;SDS011;67539;48.752;12.922;2023-03-01T12:16:29;14.60;;;11.10;;
78288;SDS011;67539;48.752;12.922;2023-03-01T12:22:06;14.23;;;10.60;;
78288;SDS011;67539;48.752;12.922;2023-03-01T12:24:45;14.97;;;11.50;;
78288;SDS011;67539;48.752;12.922;2023-03-01T12:27:37;12.83;;;9.93;;
78288;SDS011;67539;48.752;12.922;2023-03-01T12:30:25;16.20;;;9.70;;
78288;SDS011;67539;48.752;12.922;2023-03-01T12:33:04;11.73;;;9.07;;
78288;SDS011;67539;48.752;12.922;2023-03-01T12:35:49;14.17;;;10.40;;
78288;SDS011;67539;48.752;12.922;2023-03-01T12:38:32;10.93;;;8.97;;
78288;SDS011;67539;48.752;12.922;2023-03-01T12:41:08;11.47;;;9.50;;
78288;SDS011;67539;48.752;12.922;2023-03-01T12:43:50;10.37;;;7.87;;
78288;SDS011;67539;48.752;12.922;2023-03-01T12:46:32;9.17;;;7.90;;
78288;SDS011;67539;48.752;12.922;2023-03-01T12:49:10;11.87;;;9.10;;
78288;SDS011;67539;48.752;12.922;2023-03-01T12:51:46;18.67;;;14.50;;
78288;SDS011;67539;48.752;12.922;2023-03-01T12:54:27;18.57;;;15.10;;
78288;SDS011;67539;48.752;12.922;2023-03-01T12:56:59;18.90;;;14.37;;
78288;SDS011;67539;48.752;12.922;2023-03-01T12:59:36;23.20;;;15.97;;
78288;SDS011;67539;48.752;12.922;2023-03-01T13:02:09;17.87;;;14.67;;
78288;SDS011;67539;48.752;12.922;2023-03-01T13:04:53;17.97;;;15.00;;
78288;SDS011;67539;48.752;12.922;2023-03-01T13:07:34;19.57;;;13.83;;
78288;SDS011;67539;48.752;12.922;2023-03-01T13:10:10;17.17;;;13.90;;
78288;SDS011;67539;48.752;12.922;2023-03-01T13:12:50;19.13;;;13.67;;
78288;SDS011;67539;48.752;12.922;2023-03-01T13:15:29;15.83;;;11.93;;
78288;SDS011;67539;48.752;12.922;2023-03-01T13:18:00;15.23;;;12.43;;
78288;SDS011;67539;48.752;12.922;2023-03-01T13:20:31;14.83;;;11.40;;
78288;SDS011;67539;48.752;12.922;2023-03-01T13:23:03;15.87;;;12.47;;
78288;SDS011;67539;48.752;12.922;2023-03-01T13:25:35;16.40;;;12.93;;
78288;SDS011;67539;48.752;12.922;2023-03-01T13:28:41;11.00;;;8.30;;
78288;SDS011;67539;48.752;12.922;2023-03-01T13:34:44;15.07;;;11.00;;
78288;SDS011;67539;48.752;12.922;2023-03-01T13:37:20;17.43;;;12.87;;
78288;SDS011;67539;48.752;12.922;2023-03-01T13:39:52;7.73;;;7.00;;
78288;SDS011;67539;48.752;12.922;2023-03-01T13:42:31;9.27;;;7.50;;
78288;SDS011;67539;48.752;12.922;2023-03-01T13:45:05;9.37;;;6.63;;
78288;SDS011;67539;48.752;12.922;2023-03-01T13:47:52;8.10;;;7.17;;
78288;SDS011;67539;48.752;12.922;2023-03-01T13:50:25;8.70;;;7.13;;
78288;SDS011;67539;48.752;12.922;2023-03-01T13:52:55;9.53;;;7.60;;
78288;SDS011;67539;48.752;12.922;2023-03-01T13:55:29;9.20;;;8.03;;
78288;SDS011;67539;48.752;12.922;2023-03-01T13:58:04;11.33;;;8.03;;
78288;SDS011;67539;48.752;12.922;2023-03-01T14:00:42;8.03;;;7.20;;
78288;SDS011;67539;48.752;12.922;2023-03-01T14:03:13;8.90;;;8.00;;
78288;SDS011;67539;48.752;12.922;2023-03-01T14:05:43;8.37;;;7.43;;
78288;SDS011;67539;48.752;12.922;2023-03-01T14:08:38;8.70;;;7.17;;
78288;SDS011;67539;48.752;12.922;2023-03-01T14:14:34;8.60;;;6.57;;
78288;SDS011;67539;48.752;12.922;2023-03-01T14:20:21;8.10;;;6.07;;
78288;SDS011;67539;48.752;12.922;2023-03-01T14:22:51;7.83;;;7.03;;
78288;SDS011;67539;48.752;12.922;2023-03-01T14:25:24;8.67;;;6.60;;
78288;SDS011;67539;48.752;12.922;2023-03-01T14:27:55;8.37;;;7.10;;
78288;SDS011;67539;48.752;12.922;2023-03-01T14:30:32;7.77;;;6.80;;
78288;SDS011;67539;48.752;12.922;2023-03-01T14:33:04;7.90;;;7.10;;
78288;SDS011;67539;48.752;12.922;2023-03-01T14:35:52;8.27;;;7.20;;
78288;SDS011;67539;48.752;12.922;2023-03-01T14:38:27;7.13;;;6.43;;
78288;SDS011;67539;48.752;12.922;2023-03-01T14:40:59;8.17;;;6.83;;
78288;SDS011;67539;48.752;12.922;2023-03-01T14:43:32;9.83;;;7.70;;
78288;SDS011;67539;48.752;12.922;2023-03-01T14:46:00;7.83;;;6.20;;
78288;SDS011;67539;48.752;12.922;2023-03-01T14:48:28;9.30;;;7.90;;
78288;SDS011;67539;48.752;12.922;2023-03-01T14:50:59;12.17;;;9.63;;
78288;SDS011;67539;48.752;12.922;2023-03-01T14:53:28;11.20;;;9.43;;
78288;SDS011;67539;48.752;12.922;2023-03-01T14:56:15;11.20;;;10.10;;
78288;SDS011;67539;48.752;12.922;2023-03-01T14:58:43;13.50;;;9.50;;
78288;SDS011;67539;48.752;12.922;2023-03-01T15:01:14;11.10;;;9.93;;